Time,TemperatureF,DewpointF,PressureIn,WindDirection,WindDirectionDegrees,WindSpeedMPH,WindSpeedGustMPH,Humidity,HourlyPrecipIn,Conditions,Clouds,dailyrainin,SoftwareType,DateUTC
2013-02-28 00:00:00,39.4,39.4,29.55,WNW,282,2.0,4.6,100,0.00,,,1.16,WeatherDisplay:10.37,2013-02-28 05:00:00,
2013-02-28 00:05:00,39.3,39.3,29.54,NW,305,4.6,6.9,100,0.00,RA,,0.00,WeatherDisplay:10.37,2013-02-28 05:05:00,
2013-02-28 00:11:00,39.1,39.1,29.54,WNW,303,4.0,5.0,100,0.00,,,0.00,WeatherDisplay:10.37,2013-02-28 05:11:00,
2013-02-28 00:16:00,39.0,39.0,29.54,NW,304,3.8,5.8,100,0.00,,,0.00,WeatherDisplay:10.37,2013-02-28 05:16:00,
2013-02-28 00:21:00,38.9,38.9,29.54,WNW,298,2.6,4.0,100,0.00,,,0.00,WeatherDisplay:10.37,2013-02-28 05:21:00,
2013-02-28 00:26:00,38.8,38.8,29.54,NW,320,2.7,3.5,100,0.00,,,0.00,WeatherDisplay:10.37,2013-02-28 05:26:00,
2013-02-28 00:31:00,38.7,38.7,29.54,NW,319,2.4,5.0,100,0.00,,,0.00,WeatherDisplay:10.37,2013-02-28 05:31:00,
2013-02-28 00:37:00,38.6,38.6,29.54,NW,318,1.6,3.5,100,0.00,,,0.00,WeatherDisplay:10.37,2013-02-28 05:37:00,
2013-02-28 00:42:00,38.4,38.4,29.54,NW,306,2.5,3.5,100,0.00,,,0.00,WeatherDisplay:10.37,2013-02-28 05:42:00,
2013-02-28 00:47:00,38.2,38.2,29.54,NW,326,3.7,5.8,100,0.00,,,0.00,WeatherDisplay:10.37,2013-02-28 05:47:00,
2013-02-28 00:52:00,37.9,37.9,29.55,WNW,297,3.0,6.9,100,0.00,,,0.00,WeatherDisplay:10.37,2013-02-28 05:52:00,
2013-02-28 00:57:00,37.8,37.8,29.55,WNW,297,1.9,3.5,100,0.00,,,0.00,WeatherDisplay:10.37,2013-02-28 05:57:00,
2013-02-28 01:02:00,37.7,37.7,29.55,WSW,258,2.7,4.6,100,0.00,,,0.00,WeatherDisplay:10.37,2013-02-28 06:02:00,
2013-02-28 01:08:00,37.5,37.5,29.55,WNW,296,2.9,4.6,100,0.00,,,0.00,WeatherDisplay:10.37,2013-02-28 06:08:00,
2013-02-28 01:13:00,37.4,37.4,29.55,West,277,2.7,6.9,100,0.00,,,0.00,WeatherDisplay:10.37,2013-02-28 06:13:00,
2013-02-28 01:18:00,37.2,37.2,29.56,WNW,289,1.6,3.5,100,0.00,,,0.00,WeatherDisplay:10.37,2013-02-28 06:18:00,
2013-02-28 01:23:00,37.1,37.1,29.56,WNW,291,2.2,3.5,100,0.00,,,0.00,WeatherDisplay:10.37,2013-02-28 06:23:00,
2013-02-28 01:29:00,37.1,37.1,29.56,West,276,1.2,3.5,100,0.00,,,0.00,WeatherDisplay:10.37,2013-02-28 06:29:00,
2013-02-28 01:34:00,37.0,37.0,29.56,SW,220,1.6,4.0,100,0.00,,,0.00,WeatherDisplay:10.37,2013-02-28 06:34:00,
2013-02-28 01:39:00,36.9,36.9,29.56,NW,322,2.3,5.0,100,0.00,,,0.00,WeatherDisplay:10.37,2013-02-28 06:39:00,
2013-02-28 01:44:00,36.8,36.8,29.56,NW,326,3.7,5.0,100,0.00,,,0.00,WeatherDisplay:10.37,2013-02-28 06:44:00,
2013-02-28 01:50:00,36.7,36.7,29.56,West,276,3.2,5.0,100,0.00,,,0.00,WeatherDisplay:10.37,2013-02-28 06:50:00,
2013-02-28 01:55:00,36.6,36.6,29.56,WNW,299,1.0,5.0,100,0.00,,,0.00,WeatherDisplay:10.37,2013-02-28 06:55:00,
2013-02-28 02:00:00,36.6,36.6,29.56,NW,304,1.0,5.0,100,0.00,,,0.00,WeatherDisplay:10.37,2013-02-28 07:00:00,
2013-02-28 02:05:00,36.6,36.6,29.56,WNW,296,2.0,4.0,100,0.00,,,0.00,WeatherDisplay:10.37,2013-02-28 07:05:00,
2013-02-28 02:10:00,36.5,36.5,29.56,WNW,284,1.0,3.0,100,0.00,,,0.00,WeatherDisplay:10.37,2013-02-28 07:10:00,
2013-02-28 02:15:00,36.5,36.5,29.56,WNW,301,1.9,3.5,100,0.00,,,0.00,WeatherDisplay:10.37,2013-02-28 07:15:00,
2013-02-28 02:20:00,36.4,36.4,29.56,WNW,301,1.8,3.5,100,0.00,,,0.00,WeatherDisplay:10.37,2013-02-28 07:20:00,
2013-02-28 02:25:00,36.4,36.4,29.56,WNW,301,2.0,3.5,100,0.00,,,0.00,WeatherDisplay:10.37,2013-02-28 07:25:00,
2013-02-28 02:31:00,36.4,36.4,29.56,WNW,301,0.8,2.3,100,0.00,,,0.00,WeatherDisplay:10.37,2013-02-28 07:31:00,
2013-02-28 02:36:00,36.4,36.4,29.56,WNW,301,1.5,3.5,100,0.00,,,0.00,WeatherDisplay:10.37,2013-02-28 07:36:00,
2013-02-28 02:41:00,36.4,36.4,29.57,SW,233,1.5,3.5,100,0.00,,,0.00,WeatherDisplay:10.37,2013-02-28 07:41:00,
2013-02-28 02:46:00,36.3,36.3,29.57,West,268,2.9,4.6,100,0.00,,,0.00,WeatherDisplay:10.37,2013-02-28 07:46:00,
2013-02-28 02:52:00,36.3,36.3,29.57,SW,234,1.4,3.5,100,0.00,,,0.00,WeatherDisplay:10.37,2013-02-28 07:52:00,
2013-02-28 02:57:00,36.1,36.1,29.57,WNW,297,2.1,3.5,100,0.00,,,0.00,WeatherDisplay:10.37,2013-02-28 07:57:00,
2013-02-28 03:02:00,36.1,36.1,29.57,West,264,0.9,2.3,100,0.00,,,0.00,WeatherDisplay:10.37,2013-02-28 08:02:00,
2013-02-28 03:07:00,36.0,36.0,29.57,WNW,285,0.9,3.5,100,0.00,,,0.00,WeatherDisplay:10.37,2013-02-28 08:07:00,
2013-02-28 03:12:00,35.9,35.9,29.58,West,269,2.0,3.5,100,0.00,,,0.00,WeatherDisplay:10.37,2013-02-28 08:12:00,
2013-02-28 03:17:00,35.8,35.8,29.57,WNW,300,2.3,3.5,100,0.00,,,0.00,WeatherDisplay:10.37,2013-02-28 08:17:00,
2013-02-28 03:23:00,35.8,35.8,29.57,NW,316,3.5,5.0,100,0.00,,,0.00,WeatherDisplay:10.37,2013-02-28 08:23:00,
2013-02-28 03:28:00,35.7,35.7,29.57,WNW,300,2.9,4.6,100,0.00,,,0.00,WeatherDisplay:10.37,2013-02-28 08:28:00,
2013-02-28 03:33:00,35.6,35.6,29.57,WNW,300,2.0,3.5,100,0.00,,,0.00,WeatherDisplay:10.37,2013-02-28 08:33:00,
2013-02-28 03:38:00,35.5,35.5,29.57,NW,319,4.0,4.6,100,0.00,,,0.00,WeatherDisplay:10.37,2013-02-28 08:38:00,
2013-02-28 03:44:00,35.4,35.4,29.57,NW,307,2.1,3.5,100,0.00,,,0.00,WeatherDisplay:10.37,2013-02-28 08:44:00,
2013-02-28 03:49:00,35.4,35.4,29.58,NW,307,1.9,3.5,100,0.00,,,0.00,WeatherDisplay:10.37,2013-02-28 08:49:00,
2013-02-28 03:54:00,35.3,35.3,29.57,NW,307,0.7,2.3,100,0.00,,,0.00,WeatherDisplay:10.37,2013-02-28 08:54:00,
2013-02-28 03:59:00,35.4,35.4,29.58,NW,307,0.7,1.2,100,0.00,,,0.00,WeatherDisplay:10.37,2013-02-28 08:59:00,
2013-02-28 04:04:00,35.4,35.4,29.58,NW,307,1.2,2.3,100,0.00,,,0.00,WeatherDisplay:10.37,2013-02-28 09:04:00,
2013-02-28 04:10:00,35.5,35.5,29.58,NW,307,0.0,2.3,100,0.00,,,0.00,WeatherDisplay:10.37,2013-02-28 09:10:00,
2013-02-28 04:15:00,35.5,35.5,29.58,SW,231,2.3,6.0,100,0.00,,,0.00,WeatherDisplay:10.37,2013-02-28 09:15:00,
2013-02-28 04:20:00,35.4,35.4,29.58,WSW,248,0.5,3.5,100,0.00,,,0.00,WeatherDisplay:10.37,2013-02-28 09:20:00,
2013-02-28 04:25:00,35.4,35.4,29.58,WSW,243,1.0,6.0,100,0.00,,,0.00,WeatherDisplay:10.37,2013-02-28 09:25:00,
2013-02-28 04:30:00,35.3,35.3,29.58,WSW,246,1.0,3.0,100,0.00,,,0.00,WeatherDisplay:10.37,2013-02-28 09:30:00,
2013-02-28 04:35:00,35.3,35.3,29.58,WSW,254,1.0,3.0,100,0.00,,,0.00,WeatherDisplay:10.37,2013-02-28 09:35:00,
2013-02-28 04:40:00,35.3,35.3,29.59,West,267,2.0,4.0,100,0.00,,,0.00,WeatherDisplay:10.37,2013-02-28 09:40:00,
2013-02-28 04:45:00,35.2,35.2,29.59,WNW,290,2.1,3.5,100,0.00,,,0.00,WeatherDisplay:10.37,2013-02-28 09:45:00,
2013-02-28 04:50:00,35.1,35.1,29.59,WNW,291,2.8,3.5,100,0.00,,,0.00,WeatherDisplay:10.37,2013-02-28 09:50:00,
2013-02-28 04:56:00,35.0,35.0,29.59,WNW,291,1.4,2.3,100,0.00,,,0.00,WeatherDisplay:10.37,2013-02-28 09:56:00,
2013-02-28 05:01:00,35.0,35.0,29.59,WNW,291,0.8,2.3,100,0.00,,,0.00,WeatherDisplay:10.37,2013-02-28 10:01:00,
2013-02-28 05:06:00,35.0,35.0,29.60,West,280,1.6,3.5,100,0.00,,,0.00,WeatherDisplay:10.37,2013-02-28 10:06:00,
2013-02-28 05:11:00,35.0,35.0,29.60,WSW,257,1.7,3.5,100,0.00,,,0.00,WeatherDisplay:10.37,2013-02-28 10:11:00,
2013-02-28 05:17:00,34.9,34.9,29.60,WSW,257,2.3,3.0,100,0.00,,,0.00,WeatherDisplay:10.37,2013-02-28 10:17:00,
2013-02-28 05:22:00,34.8,34.8,29.59,WNW,303,2.5,4.0,100,0.00,,,0.00,WeatherDisplay:10.37,2013-02-28 10:22:00,
2013-02-28 05:27:00,34.7,34.7,29.60,West,268,2.5,6.9,100,0.00,,,0.00,WeatherDisplay:10.37,2013-02-28 10:27:00,
2013-02-28 05:32:00,34.7,34.7,29.60,WSW,248,4.5,5.8,100,0.00,,,0.00,WeatherDisplay:10.37,2013-02-28 10:32:00,
2013-02-28 05:38:00,34.7,34.7,29.60,WSW,237,3.1,5.0,100,0.00,,,0.00,WeatherDisplay:10.37,2013-02-28 10:38:00,
2013-02-28 05:43:00,34.6,34.6,29.60,WSW,256,2.0,5.0,100,0.00,,,0.00,WeatherDisplay:10.37,2013-02-28 10:43:00,
2013-02-28 05:48:00,34.5,34.5,29.60,WNW,283,4.4,5.8,100,0.00,,,0.00,WeatherDisplay:10.37,2013-02-28 10:48:00,
2013-02-28 05:53:00,34.4,34.4,29.61,WNW,297,3.1,4.0,100,0.00,,,0.00,WeatherDisplay:10.37,2013-02-28 10:53:00,
2013-02-28 05:59:00,34.4,34.4,29.61,WSW,245,4.0,7.0,100,0.00,,,0.00,WeatherDisplay:10.37,2013-02-28 10:59:00,
2013-02-28 06:04:00,34.4,34.4,29.60,WSW,256,0.4,2.3,100,0.00,,,0.00,WeatherDisplay:10.37,2013-02-28 11:04:00,
2013-02-28 06:09:00,34.4,34.4,29.61,WNW,302,1.6,3.5,100,0.00,,,0.00,WeatherDisplay:10.37,2013-02-28 11:09:00,
2013-02-28 06:14:00,34.4,34.4,29.61,WSW,237,1.9,4.0,100,0.00,,,0.00,WeatherDisplay:10.37,2013-02-28 11:14:00,
2013-02-28 06:19:00,34.5,34.5,29.61,WSW,237,1.0,4.0,100,0.00,,,0.00,WeatherDisplay:10.37,2013-02-28 11:19:00,
2013-02-28 06:25:00,34.5,34.5,29.61,WSW,237,1.0,3.5,100,0.00,,,0.00,WeatherDisplay:10.37,2013-02-28 11:25:00,
2013-02-28 06:30:00,34.5,34.5,29.61,SW,231,1.5,3.5,100,0.00,,,0.00,WeatherDisplay:10.37,2013-02-28 11:30:00,
2013-02-28 06:35:00,34.6,34.6,29.61,SW,231,0.0,2.3,100,0.00,,,0.00,WeatherDisplay:10.37,2013-02-28 11:35:00,
2013-02-28 06:40:00,34.6,34.6,29.61,SW,231,1.0,3.0,100,0.00,,,0.00,WeatherDisplay:10.37,2013-02-28 11:40:00,
2013-02-28 06:45:00,34.6,34.6,29.61,WSW,247,1.0,3.0,100,0.00,,,0.00,WeatherDisplay:10.37,2013-02-28 11:45:00,
2013-02-28 06:50:00,34.6,34.6,29.61,WNW,284,1.0,2.0,100,0.00,,,0.00,WeatherDisplay:10.37,2013-02-28 11:50:00,
2013-02-28 06:55:00,34.6,34.6,29.61,SSW,200,1.0,2.3,100,0.00,,,0.00,WeatherDisplay:10.37,2013-02-28 11:55:00,
2013-02-28 07:00:00,34.6,34.6,29.61,WSW,249,1.2,3.5,100,0.00,,,0.00,WeatherDisplay:10.37,2013-02-28 12:00:00,
2013-02-28 07:06:00,34.6,34.6,29.61,NNE,20,2.4,4.0,100,0.00,,,0.00,WeatherDisplay:10.37,2013-02-28 12:06:00,
2013-02-28 07:11:00,34.5,34.5,29.61,NW,315,1.9,4.6,100,0.00,,,0.00,WeatherDisplay:10.37,2013-02-28 12:11:00,
2013-02-28 07:16:00,34.6,34.6,29.61,NW,315,1.3,2.3,100,0.00,,,0.00,WeatherDisplay:10.37,2013-02-28 12:16:00,
2013-02-28 07:21:00,34.7,34.7,29.61,North,359,1.5,4.0,100,0.00,,,0.00,WeatherDisplay:10.37,2013-02-28 12:21:00,
2013-02-28 07:26:00,34.6,34.6,29.61,NNW,344,2.2,4.0,100,0.00,,,0.00,WeatherDisplay:10.37,2013-02-28 12:26:00,
2013-02-28 07:32:00,34.6,34.6,29.61,NW,316,3.0,4.6,100,0.00,,,0.00,WeatherDisplay:10.37,2013-02-28 12:32:00,
2013-02-28 07:37:00,34.6,34.6,29.61,North,0,0.8,2.3,100,0.00,,,0.00,WeatherDisplay:10.37,2013-02-28 12:37:00,
2013-02-28 07:42:00,34.6,34.6,29.61,North,359,1.9,3.5,100,0.00,,,0.00,WeatherDisplay:10.37,2013-02-28 12:42:00,
2013-02-28 07:47:00,34.6,34.6,29.61,North,359,1.9,3.5,100,0.00,,,0.00,WeatherDisplay:10.37,2013-02-28 12:47:00,
2013-02-28 07:53:00,34.6,34.6,29.61,NW,308,1.4,2.3,100,0.00,,,0.00,WeatherDisplay:10.37,2013-02-28 12:53:00,
2013-02-28 07:58:00,34.7,34.7,29.62,West,267,0.3,2.3,100,0.00,,,0.00,WeatherDisplay:10.37,2013-02-28 12:58:00,
2013-02-28 08:03:00,34.7,34.7,29.62,West,265,1.5,2.3,100,0.00,,,0.00,WeatherDisplay:10.37,2013-02-28 13:03:00,
2013-02-28 08:08:00,34.7,34.7,29.62,West,260,2.4,5.0,100,0.00,,,0.00,WeatherDisplay:10.37,2013-02-28 13:08:00,
2013-02-28 08:13:00,34.7,34.7,29.62,WSW,244,2.6,5.8,100,0.00,,,0.00,WeatherDisplay:10.37,2013-02-28 13:13:00,
2013-02-28 08:19:00,34.8,34.8,29.62,WSW,255,1.9,4.6,100,0.00,,,0.00,WeatherDisplay:10.37,2013-02-28 13:19:00,
2013-02-28 08:24:00,34.9,34.9,29.62,SSW,196,0.0,3.5,100,0.00,,,0.00,WeatherDisplay:10.37,2013-02-28 13:24:00,
2013-02-28 08:29:00,35.1,35.1,29.62,SW,217,0.7,2.3,100,0.00,,,0.00,WeatherDisplay:10.37,2013-02-28 13:29:00,
2013-02-28 08:34:00,35.1,35.1,29.63,SW,225,2.2,4.6,100,0.00,,,0.00,WeatherDisplay:10.37,2013-02-28 13:34:00,
2013-02-28 08:39:00,35.1,35.1,29.63,SSW,196,2.9,5.8,100,0.00,,,0.00,WeatherDisplay:10.37,2013-02-28 13:39:00,
2013-02-28 08:45:00,35.1,35.1,29.63,WSW,241,2.6,3.5,100,0.00,,,0.00,WeatherDisplay:10.37,2013-02-28 13:45:00,
2013-02-28 08:50:00,35.1,35.1,29.63,SW,217,2.0,5.0,100,0.00,,,0.00,WeatherDisplay:10.37,2013-02-28 13:50:00,
2013-02-28 08:55:00,35.2,35.2,29.63,SW,230,1.7,3.5,100,0.00,,,0.00,WeatherDisplay:10.37,2013-02-28 13:55:00,
2013-02-28 09:00:00,35.4,35.4,29.63,SW,215,3.6,5.8,100,0.00,,,0.00,WeatherDisplay:10.37,2013-02-28 14:00:00,
2013-02-28 09:05:00,35.9,35.9,29.63,SSW,205,2.8,3.5,100,0.00,,,0.00,WeatherDisplay:10.37,2013-02-28 14:05:00,
2013-02-28 09:11:00,36.2,36.2,29.64,SSW,201,2.6,4.0,100,0.00,,,0.00,WeatherDisplay:10.37,2013-02-28 14:11:00,
2013-02-28 09:16:00,36.5,36.5,29.63,SSW,203,3.5,6.9,100,0.00,,,0.00,WeatherDisplay:10.37,2013-02-28 14:16:00,
2013-02-28 09:21:00,36.5,36.5,29.63,SSW,195,3.1,6.0,100,0.00,,,0.00,WeatherDisplay:10.37,2013-02-28 14:21:00,
2013-02-28 09:26:00,36.8,36.8,29.63,SW,214,3.3,5.8,100,0.00,,,0.00,WeatherDisplay:10.37,2013-02-28 14:26:00,
2013-02-28 09:32:00,36.8,36.8,29.63,SSW,195,2.2,5.0,100,0.00,,,0.00,WeatherDisplay:10.37,2013-02-28 14:32:00,
2013-02-28 09:37:00,37.0,37.0,29.63,SSW,213,3.1,5.8,100,0.00,,,0.00,WeatherDisplay:10.37,2013-02-28 14:37:00,
2013-02-28 09:42:00,37.3,37.3,29.63,SW,215,3.1,6.9,100,0.00,,,0.00,WeatherDisplay:10.37,2013-02-28 14:42:00,
2013-02-28 09:47:00,37.7,37.7,29.63,SW,218,3.3,4.6,100,0.00,,,0.00,WeatherDisplay:10.37,2013-02-28 14:47:00,
2013-02-28 09:53:00,37.8,37.8,29.63,SSW,208,1.0,2.3,100,0.00,,,0.00,WeatherDisplay:10.37,2013-02-28 14:53:00,
2013-02-28 09:58:00,38.2,38.2,29.62,West,262,2.0,3.5,100,0.00,,,0.00,WeatherDisplay:10.37,2013-02-28 14:58:00,
2013-02-28 10:03:00,38.4,38.4,29.62,WNW,298,0.5,2.3,100,0.00,,,0.00,WeatherDisplay:10.37,2013-02-28 15:03:00,
2013-02-28 10:08:00,38.6,38.6,29.61,SW,221,1.3,2.0,100,0.00,,,0.00,WeatherDisplay:10.37,2013-02-28 15:08:00,
2013-02-28 10:14:00,38.7,38.7,29.62,SW,221,0.7,1.2,100,0.00,,,0.00,WeatherDisplay:10.37,2013-02-28 15:14:00,
2013-02-28 10:19:00,38.8,38.8,29.62,WSW,257,1.3,3.5,100,0.00,,,0.00,WeatherDisplay:10.37,2013-02-28 15:19:00,
2013-02-28 10:24:00,38.9,38.9,29.61,SW,226,1.7,3.5,100,0.00,,,0.00,WeatherDisplay:10.37,2013-02-28 15:24:00,
2013-02-28 10:29:00,38.9,38.9,29.60,West,260,1.2,2.3,100,0.00,,,0.00,WeatherDisplay:10.37,2013-02-28 15:29:00,
2013-02-28 10:34:00,39.2,39.2,29.61,SW,232,3.6,4.6,100,0.00,,,0.00,WeatherDisplay:10.37,2013-02-28 15:34:00,
2013-02-28 10:40:00,39.4,39.4,29.61,SSW,206,3.3,5.0,100,0.00,,,0.00,WeatherDisplay:10.37,2013-02-28 15:40:00,
2013-02-28 10:45:00,39.6,39.6,29.61,SW,226,2.0,7.0,100,0.00,,,0.00,WeatherDisplay:10.37,2013-02-28 15:45:00,
2013-02-28 10:50:00,39.9,39.9,29.61,SW,229,0.0,6.0,100,0.00,,,0.00,WeatherDisplay:10.37,2013-02-28 15:50:00,
2013-02-28 10:55:00,40.3,40.3,29.61,SSW,196,1.1,4.0,100,0.00,,,0.00,WeatherDisplay:10.37,2013-02-28 15:55:00,
2013-02-28 11:00:00,40.6,40.6,29.61,SSW,202,3.4,5.0,100,0.00,,,0.00,WeatherDisplay:10.37,2013-02-28 16:00:00,
2013-02-28 11:05:00,40.6,40.6,29.61,SSW,213,0.5,2.3,100,0.00,,,0.00,WeatherDisplay:10.37,2013-02-28 16:05:00,
2013-02-28 11:10:00,41.1,41.1,29.61,West,259,1.5,2.3,100,0.00,,,0.00,WeatherDisplay:10.37,2013-02-28 16:10:00,
2013-02-28 11:16:00,41.3,41.3,29.61,SSW,210,0.3,3.5,100,0.00,,,0.00,WeatherDisplay:10.37,2013-02-28 16:16:00,
2013-02-28 11:21:00,41.6,41.6,29.61,SSW,209,0.0,2.3,100,0.00,,,0.00,WeatherDisplay:10.37,2013-02-28 16:21:00,
2013-02-28 11:26:00,41.9,41.9,29.61,South,186,1.6,2.3,100,0.00,,,0.00,WeatherDisplay:10.37,2013-02-28 16:26:00,
2013-02-28 11:31:00,41.7,41.7,29.60,SSW,209,2.0,3.5,100,0.00,,,0.00,WeatherDisplay:10.37,2013-02-28 16:31:00,
2013-02-28 11:37:00,41.8,41.8,29.60,South,190,1.9,3.5,100,0.00,,,0.00,WeatherDisplay:10.37,2013-02-28 16:37:00,
2013-02-28 11:42:00,41.8,41.8,29.60,SW,232,1.6,3.5,100,0.00,,,0.00,WeatherDisplay:10.37,2013-02-28 16:42:00,
2013-02-28 11:47:00,41.6,41.6,29.60,WSW,249,0.1,3.5,100,0.00,,,0.00,WeatherDisplay:10.37,2013-02-28 16:47:00,
2013-02-28 11:52:00,41.7,41.7,29.60,West,266,1.8,3.0,100,0.00,,,0.00,WeatherDisplay:10.37,2013-02-28 16:52:00,
2013-02-28 11:57:00,41.8,41.8,29.60,SW,232,1.2,2.3,100,0.00,,,0.00,WeatherDisplay:10.37,2013-02-28 16:57:00,
2013-02-28 12:02:00,42.3,42.3,29.60,WSW,240,2.3,4.6,100,0.00,,,0.00,WeatherDisplay:10.37,2013-02-28 17:02:00,
2013-02-28 12:08:00,42.5,42.5,29.59,SSW,198,3.3,4.6,100,0.00,,,0.00,WeatherDisplay:10.37,2013-02-28 17:08:00,
2013-02-28 12:13:00,42.7,42.7,29.59,SW,228,0.9,2.3,100,0.00,,,0.00,WeatherDisplay:10.37,2013-02-28 17:13:00,
2013-02-28 12:18:00,42.9,42.9,29.58,SW,227,1.5,3.5,100,0.00,,,0.00,WeatherDisplay:10.37,2013-02-28 17:18:00,
2013-02-28 12:23:00,43.5,43.5,29.58,SSW,200,1.3,3.5,100,0.00,,,0.00,WeatherDisplay:10.37,2013-02-28 17:23:00,
2013-02-28 12:28:00,43.8,43.8,29.58,WSW,256,1.6,5.0,100,0.00,,,0.00,WeatherDisplay:10.37,2013-02-28 17:28:00,
2013-02-28 12:33:00,44.1,44.1,29.58,SW,230,2.6,5.0,100,0.00,,,0.00,WeatherDisplay:10.37,2013-02-28 17:33:00,
2013-02-28 12:39:00,44.0,44.0,29.58,SW,218,0.1,3.5,100,0.00,,,0.00,WeatherDisplay:10.37,2013-02-28 17:39:00,
2013-02-28 12:44:00,44.2,44.2,29.57,SW,233,2.1,4.0,100,0.00,,,0.00,WeatherDisplay:10.37,2013-02-28 17:44:00,
2013-02-28 12:49:00,44.2,44.2,29.57,WSW,243,0.5,2.3,100,0.00,,,0.00,WeatherDisplay:10.37,2013-02-28 17:49:00,
2013-02-28 12:55:00,44.3,44.3,29.57,WSW,238,1.0,3.5,100,0.00,,,0.00,WeatherDisplay:10.37,2013-02-28 17:55:00,
2013-02-28 13:00:00,44.9,44.9,29.56,WSW,238,0.1,1.2,100,0.00,,,0.00,WeatherDisplay:10.37,2013-02-28 18:00:00,
2013-02-28 13:05:00,45.1,45.1,29.56,WSW,244,0.0,5.0,100,0.00,,,0.00,WeatherDisplay:10.37,2013-02-28 18:05:00,
2013-02-28 13:10:00,45.3,45.3,29.56,WSW,248,1.0,4.0,100,0.00,,,0.00,WeatherDisplay:10.37,2013-02-28 18:10:00,
2013-02-28 13:15:00,45.8,45.8,29.56,WSW,251,0.0,2.0,100,0.00,,,0.00,WeatherDisplay:10.37,2013-02-28 18:15:00,
2013-02-28 13:20:00,46.3,46.3,29.56,SW,236,2.2,3.5,100,0.00,,,0.00,WeatherDisplay:10.37,2013-02-28 18:20:00,
2013-02-28 13:25:00,46.6,46.6,29.56,NNW,331,1.8,3.5,100,0.00,CLR,,0.00,WeatherDisplay:10.37,2013-02-28 18:25:00,
2013-02-28 13:30:00,46.3,46.3,29.56,North,11,2.8,4.6,100,0.00,,,0.00,WeatherDisplay:10.37,2013-02-28 18:30:00,
2013-02-28 13:36:00,46.1,46.1,29.55,North,11,0.0,2.3,100,0.00,,,0.00,WeatherDisplay:10.37,2013-02-28 18:36:00,
2013-02-28 13:41:00,45.7,45.7,29.55,North,10,1.5,3.5,100,0.00,,,0.00,WeatherDisplay:10.37,2013-02-28 18:41:00,
2013-02-28 13:46:00,45.7,45.7,29.55,North,351,1.5,3.0,100,0.00,,,0.00,WeatherDisplay:10.37,2013-02-28 18:46:00,
2013-02-28 13:52:00,45.7,45.7,29.55,SW,234,2.8,4.6,100,0.00,,,0.00,WeatherDisplay:10.37,2013-02-28 18:52:00,
2013-02-28 13:57:00,45.6,45.6,29.55,WSW,258,0.2,3.5,100,0.00,,,0.00,WeatherDisplay:10.37,2013-02-28 18:57:00,
2013-02-28 14:02:00,46.1,46.1,29.55,West,259,0.4,1.2,100,0.00,,,0.00,WeatherDisplay:10.37,2013-02-28 19:02:00,
2013-02-28 14:07:00,46.2,46.2,29.55,WNW,290,2.2,3.5,100,0.00,,,0.00,WeatherDisplay:10.37,2013-02-28 19:07:00,
2013-02-28 14:12:00,46.3,46.3,29.54,WNW,290,0.0,0.0,100,0.00,,,0.00,WeatherDisplay:10.37,2013-02-28 19:12:00,
2013-02-28 14:17:00,46.4,46.4,29.54,North,4,1.8,3.5,100,0.00,,,0.00,WeatherDisplay:10.37,2013-02-28 19:17:00,
2013-02-28 14:23:00,46.3,46.3,29.54,West,264,2.1,4.6,100,0.00,,,0.00,WeatherDisplay:10.37,2013-02-28 19:23:00,
2013-02-28 14:28:00,46.5,46.5,29.54,West,263,1.5,2.3,100,0.00,CLR,,0.00,WeatherDisplay:10.37,2013-02-28 19:28:00,
2013-02-28 14:33:00,46.7,46.7,29.54,West,266,2.2,3.5,100,0.00,CLR,,0.00,WeatherDisplay:10.37,2013-02-28 19:33:00,
2013-02-28 14:39:00,46.6,46.6,29.54,WNW,288,2.4,4.6,100,0.00,CLR,,0.00,WeatherDisplay:10.37,2013-02-28 19:39:00,
2013-02-28 14:44:00,46.7,46.7,29.54,West,274,0.3,3.5,100,0.00,CLR,,0.00,WeatherDisplay:10.37,2013-02-28 19:44:00,
2013-02-28 14:49:00,46.6,46.6,29.53,West,268,2.1,3.5,100,0.00,CLR,,0.00,WeatherDisplay:10.37,2013-02-28 19:49:00,
2013-02-28 14:54:00,46.4,46.4,29.53,WNW,291,0.6,3.5,100,0.00,CLR,,0.00,WeatherDisplay:10.37,2013-02-28 19:54:00,
2013-02-28 14:59:00,46.4,46.4,29.53,SW,226,2.1,3.5,100,0.00,,,0.00,WeatherDisplay:10.37,2013-02-28 19:59:00,
2013-02-28 15:05:00,46.1,46.1,29.53,North,356,1.9,3.5,100,0.00,,,0.00,WeatherDisplay:10.37,2013-02-28 20:05:00,
2013-02-28 15:10:00,46.2,46.2,29.53,NW,323,3.0,5.0,100,0.00,,,0.00,WeatherDisplay:10.37,2013-02-28 20:10:00,
2013-02-28 15:15:00,46.8,46.8,29.53,NW,315,2.6,6.0,100,0.00,CLR,,0.00,WeatherDisplay:10.37,2013-02-28 20:15:00,
2013-02-28 15:20:00,47.1,47.1,29.53,SW,232,3.6,5.0,100,0.00,CLR,,0.00,WeatherDisplay:10.37,2013-02-28 20:20:00,
2013-02-28 15:26:00,47.3,47.3,29.53,NNW,339,2.6,6.0,100,0.00,CLR,,0.00,WeatherDisplay:10.37,2013-02-28 20:26:00,
2013-02-28 15:31:00,47.1,47.1,29.52,NW,313,2.4,5.8,100,0.00,CLR,,0.00,WeatherDisplay:10.37,2013-02-28 20:31:00,
2013-02-28 15:36:00,46.8,46.8,29.52,WNW,286,3.2,8.1,100,0.00,CLR,,0.00,WeatherDisplay:10.37,2013-02-28 20:36:00,
2013-02-28 15:41:00,46.9,46.9,29.52,NW,322,2.9,5.0,100,0.00,CLR,,0.00,WeatherDisplay:10.37,2013-02-28 20:41:00,
2013-02-28 15:46:00,47.0,46.5,29.52,SW,231,2.3,4.6,98,0.00,CLR,,0.00,WeatherDisplay:10.37,2013-02-28 20:46:00,
2013-02-28 15:52:00,47.1,46.0,29.52,NW,324,2.4,4.6,96,0.00,CLR,,0.00,WeatherDisplay:10.37,2013-02-28 20:52:00,
2013-02-28 15:57:00,47.1,45.5,29.52,West,276,1.4,3.5,94,0.00,CLR,,0.00,WeatherDisplay:10.37,2013-02-28 20:57:00,
2013-02-28 16:02:00,47.1,44.9,29.52,SW,236,3.4,6.0,92,0.00,CLR,,0.00,WeatherDisplay:10.37,2013-02-28 21:02:00,
2013-02-28 16:07:00,47.1,44.0,29.52,WSW,241,1.9,5.0,89,0.00,CLR,,0.00,WeatherDisplay:10.37,2013-02-28 21:07:00,
2013-02-28 16:13:00,47.0,42.7,29.52,SW,236,2.4,4.6,85,0.00,CLR,,0.00,WeatherDisplay:10.37,2013-02-28 21:13:00,
2013-02-28 16:18:00,46.7,41.8,29.52,NNE,18,0.3,2.3,83,0.00,CLR,,0.00,WeatherDisplay:10.37,2013-02-28 21:18:00,
2013-02-28 16:23:00,46.5,40.3,29.52,NW,325,1.3,3.5,79,0.00,CLR,,0.00,WeatherDisplay:10.37,2013-02-28 21:23:00,
2013-02-28 16:28:00,46.6,40.1,29.52,North,0,0.8,3.5,78,0.00,CLR,,0.00,WeatherDisplay:10.37,2013-02-28 21:28:00,
2013-02-28 16:34:00,46.6,39.8,29.52,NW,323,2.7,8.1,77,0.00,CLR,,0.00,WeatherDisplay:10.37,2013-02-28 21:34:00,
2013-02-28 16:39:00,46.4,39.2,29.52,NW,305,2.9,3.5,76,0.00,CLR,,0.00,WeatherDisplay:10.37,2013-02-28 21:39:00,
2013-02-28 16:44:00,46.2,39.1,29.52,WNW,288,2.8,3.5,76,0.00,CLR,,0.00,WeatherDisplay:10.37,2013-02-28 21:44:00,
2013-02-28 16:49:00,45.8,38.3,29.52,NW,312,3.4,5.0,75,0.00,CLR,,0.00,WeatherDisplay:10.37,2013-02-28 21:49:00,
2013-02-28 16:54:00,45.4,37.9,29.52,WNW,293,3.4,4.0,75,0.00,CLR,,0.00,WeatherDisplay:10.37,2013-02-28 21:54:00,
2013-02-28 17:00:00,45.0,37.9,29.52,WNW,287,3.0,6.0,76,0.00,CLR,CLR,0.00,WeatherDisplay:10.37,2013-02-28 22:00:00,
2013-02-28 17:05:00,44.6,37.5,29.53,West,275,3.0,5.0,76,0.00,CLR,CLR,0.00,WeatherDisplay:10.37,2013-02-28 22:05:00,
2013-02-28 17:10:00,44.4,37.3,29.53,WNW,283,2.0,5.0,76,0.00,CLR,CLR,0.00,WeatherDisplay:10.37,2013-02-28 22:10:00,
2013-02-28 17:15:00,44.4,37.6,29.53,West,261,1.1,3.5,77,0.00,CLR,,0.00,WeatherDisplay:10.37,2013-02-28 22:15:00,
2013-02-28 17:20:00,44.3,37.5,29.53,WSW,250,3.0,6.9,77,0.00,CLR,,0.00,WeatherDisplay:10.37,2013-02-28 22:20:00,
2013-02-28 17:25:00,44.0,37.6,29.53,WSW,246,3.9,4.6,78,0.00,CLR,,0.00,WeatherDisplay:10.37,2013-02-28 22:25:00,
2013-02-28 17:30:00,43.7,37.3,29.53,WSW,240,1.8,4.6,78,0.00,CLR,,0.00,WeatherDisplay:10.37,2013-02-28 22:30:00,
2013-02-28 17:35:00,43.3,37.2,29.53,West,263,0.5,2.3,79,0.00,CLR,,0.00,WeatherDisplay:10.37,2013-02-28 22:35:00,
2013-02-28 17:41:00,42.9,36.8,29.53,West,263,0.0,1.2,79,0.00,CLR,,0.00,WeatherDisplay:10.37,2013-02-28 22:41:00,
2013-02-28 17:46:00,42.6,36.9,29.53,West,263,0.8,3.0,80,0.00,CLR,,0.00,WeatherDisplay:10.37,2013-02-28 22:46:00,
2013-02-28 17:51:00,42.2,36.8,29.53,West,263,0.9,2.3,81,0.00,CLR,,0.00,WeatherDisplay:10.37,2013-02-28 22:51:00,
2013-02-28 17:57:00,41.9,36.5,29.53,West,263,0.6,2.3,81,0.00,CLR,,0.00,WeatherDisplay:10.37,2013-02-28 22:57:00,
2013-02-28 18:02:00,41.6,36.5,29.53,West,263,1.5,2.3,82,0.00,CLR,,0.00,WeatherDisplay:10.37,2013-02-28 23:02:00,
2013-02-28 18:07:00,41.4,36.0,29.53,NW,314,3.1,5.8,81,0.00,CLR,,0.00,WeatherDisplay:10.37,2013-02-28 23:07:00,
2013-02-28 18:12:00,41.4,36.0,29.54,WNW,302,1.8,3.5,81,0.00,CLR,,0.00,WeatherDisplay:10.37,2013-02-28 23:12:00,
2013-02-28 18:17:00,41.3,36.2,29.53,NW,321,1.4,3.5,82,0.00,CLR,,0.00,WeatherDisplay:10.37,2013-02-28 23:17:00,
2013-02-28 18:23:00,41.2,36.1,29.53,NW,321,1.2,3.5,82,0.00,CLR,,0.00,WeatherDisplay:10.37,2013-02-28 23:23:00,
2013-02-28 18:28:00,41.2,36.1,29.53,North,0,1.0,3.5,82,0.00,CLR,,0.00,WeatherDisplay:10.37,2013-02-28 23:28:00,
2013-02-28 18:33:00,41.1,36.0,29.53,NNW,327,0.3,2.3,82,0.00,CLR,,0.00,WeatherDisplay:10.37,2013-02-28 23:33:00,
2013-02-28 18:38:00,41.1,36.0,29.53,NNW,327,0.0,0.0,82,0.00,CLR,,0.00,WeatherDisplay:10.37,2013-02-28 23:38:00,
2013-02-28 18:43:00,41.1,36.0,29.53,NNW,327,0.5,3.5,82,0.00,CLR,,0.00,WeatherDisplay:10.37,2013-02-28 23:43:00,
2013-02-28 18:49:00,41.1,36.0,29.53,NNW,327,1.9,3.5,82,0.00,CLR,,0.00,WeatherDisplay:10.37,2013-02-28 23:49:00,
2013-02-28 18:54:00,41.2,36.1,29.53,NNW,327,0.2,2.3,82,0.00,CLR,,0.00,WeatherDisplay:10.37,2013-02-28 23:54:00,
2013-02-28 18:59:00,41.3,36.2,29.53,NNW,327,0.1,1.2,82,0.00,CLR,,0.00,WeatherDisplay:10.37,2013-02-28 23:59:00,
2013-02-28 19:04:00,41.3,36.2,29.53,NNW,327,1.2,2.3,82,0.00,CLR,,0.00,WeatherDisplay:10.37,2013-03-01 00:04:00,
2013-02-28 19:09:00,41.3,36.2,29.53,WNW,302,2.6,3.5,82,0.00,CLR,,0.00,WeatherDisplay:10.37,2013-03-01 00:09:00,
2013-02-28 19:15:00,41.3,36.2,29.53,NNW,330,2.3,3.5,82,0.00,CLR,,0.00,WeatherDisplay:10.37,2013-03-01 00:15:00,
2013-02-28 19:20:00,41.3,36.2,29.53,NW,318,1.0,5.0,82,0.00,CLR,CLR,0.00,WeatherDisplay:10.37,2013-03-01 00:20:00,
2013-02-28 19:25:00,41.3,36.2,29.53,NW,323,1.2,3.5,82,0.00,CLR,,0.00,WeatherDisplay:10.37,2013-03-01 00:25:00,
2013-02-28 19:30:00,41.1,36.0,29.53,NW,323,0.0,0.0,82,0.00,CLR,,0.00,WeatherDisplay:10.37,2013-03-01 00:30:00,
2013-02-28 19:35:00,40.9,36.1,29.53,NW,323,0.8,3.5,83,0.00,CLR,,0.00,WeatherDisplay:10.37,2013-03-01 00:35:00,
2013-02-28 19:41:00,40.8,36.0,29.53,NW,323,1.2,2.3,83,0.00,CLR,,0.00,WeatherDisplay:10.37,2013-03-01 00:41:00,
2013-02-28 19:46:00,40.7,35.9,29.53,NW,323,1.1,2.3,83,0.00,CLR,,0.00,WeatherDisplay:10.37,2013-03-01 00:46:00,
2013-02-28 19:51:00,40.6,36.1,29.53,NW,323,0.8,2.3,84,0.00,CLR,,0.00,WeatherDisplay:10.37,2013-03-01 00:51:00,
2013-02-28 19:57:00,40.4,35.9,29.53,NW,323,1.1,2.0,84,0.00,CLR,,0.00,WeatherDisplay:10.37,2013-03-01 00:57:00,
2013-02-28 20:02:00,40.3,35.8,29.53,NNW,330,1.1,3.5,84,0.00,CLR,,0.00,WeatherDisplay:10.37,2013-03-01 01:02:00,
2013-02-28 20:07:00,40.1,36.0,29.53,NNW,330,0.5,2.3,85,0.00,CLR,,0.00,WeatherDisplay:10.37,2013-03-01 01:07:00,
2013-02-28 20:12:00,39.8,35.7,29.53,NNW,330,0.0,0.0,85,0.00,CLR,,0.00,WeatherDisplay:10.37,2013-03-01 01:12:00,
2013-02-28 20:18:00,39.3,35.5,29.53,NNW,330,0.0,0.0,86,0.00,CLR,,0.00,WeatherDisplay:10.37,2013-03-01 01:18:00,
2013-02-28 20:23:00,39.0,35.2,29.53,NNW,330,0.0,0.0,86,0.00,CLR,,0.00,WeatherDisplay:10.37,2013-03-01 01:23:00,
2013-02-28 20:28:00,38.6,35.1,29.53,NNW,330,0.0,0.0,87,0.00,CLR,,0.00,WeatherDisplay:10.37,2013-03-01 01:28:00,
2013-02-28 20:33:00,38.2,35.0,29.53,NNW,330,0.0,1.2,88,0.00,CLR,,0.00,WeatherDisplay:10.37,2013-03-01 01:33:00,
2013-02-28 20:38:00,37.8,34.8,29.53,NNW,330,0.0,0.0,89,0.00,CLR,,0.00,WeatherDisplay:10.37,2013-03-01 01:38:00,
2013-02-28 20:43:00,37.6,34.7,29.53,NNW,330,0.0,0.0,89,0.00,CLR,,0.00,WeatherDisplay:10.37,2013-03-01 01:43:00,
2013-02-28 20:49:00,37.6,34.9,29.53,NNW,330,0.0,0.0,90,0.00,CLR,,0.00,WeatherDisplay:10.37,2013-03-01 01:49:00,
2013-02-28 20:54:00,37.6,34.9,29.54,NNW,330,0.0,0.0,90,0.00,CLR,,0.00,WeatherDisplay:10.37,2013-03-01 01:54:00,
2013-02-28 20:59:00,37.5,34.8,29.53,NNW,330,0.0,0.0,90,0.00,CLR,,0.00,WeatherDisplay:10.37,2013-03-01 01:59:00,
2013-02-28 21:04:00,37.3,34.9,29.53,NNW,330,0.0,0.0,91,0.00,CLR,,0.00,WeatherDisplay:10.37,2013-03-01 02:04:00,
2013-02-28 21:09:00,37.1,34.7,29.53,NNW,330,0.0,0.0,91,0.00,CLR,,0.00,WeatherDisplay:10.37,2013-03-01 02:09:00,
2013-02-28 21:15:00,36.9,34.5,29.54,NNW,330,0.8,2.3,91,0.00,CLR,,0.00,WeatherDisplay:10.37,2013-03-01 02:15:00,
2013-02-28 21:20:00,37.0,34.9,29.53,NNW,330,0.0,0.0,92,0.00,CLR,,0.00,WeatherDisplay:10.37,2013-03-01 02:20:00,
2013-02-28 21:25:00,37.1,35.0,29.53,NNW,330,0.0,0.0,92,0.00,CLR,CLR,0.00,WeatherDisplay:10.37,2013-03-01 02:25:00,
2013-02-28 21:30:00,37.3,34.9,29.53,NNW,330,0.0,0.0,91,0.00,CLR,,0.00,WeatherDisplay:10.37,2013-03-01 02:30:00,
2013-02-28 21:35:00,37.3,34.9,29.53,NNW,330,0.0,0.0,91,0.00,CLR,CLR,0.00,WeatherDisplay:10.37,2013-03-01 02:35:00,
2013-02-28 21:40:00,37.3,34.9,29.53,NNW,330,1.0,2.0,91,0.00,CLR,CLR,0.00,WeatherDisplay:10.37,2013-03-01 02:40:00,
2013-02-28 21:45:00,37.5,35.1,29.53,NNW,330,0.0,1.2,91,0.00,CLR,,0.00,WeatherDisplay:10.37,2013-03-01 02:45:00,
2013-02-28 21:50:00,37.6,35.2,29.53,NNW,330,0.0,0.0,91,0.00,CLR,CLR,0.00,WeatherDisplay:10.37,2013-03-01 02:50:00,
2013-02-28 21:55:00,37.8,35.4,29.53,NNW,330,0.9,2.3,91,0.00,CLR,,0.00,WeatherDisplay:10.37,2013-03-01 02:55:00,
2013-02-28 22:00:00,37.9,35.5,29.53,NNW,330,0.3,1.2,91,0.00,CLR,,0.00,WeatherDisplay:10.37,2013-03-01 03:00:00,
2013-02-28 22:05:00,37.9,35.2,29.52,NNW,330,0.0,0.0,90,0.00,CLR,,0.00,WeatherDisplay:10.37,2013-03-01 03:05:00,
2013-02-28 22:10:00,38.0,35.3,29.52,NNW,330,0.0,0.0,90,0.00,CLR,,0.00,WeatherDisplay:10.37,2013-03-01 03:10:00,
2013-02-28 22:15:00,37.9,35.5,29.52,NNW,330,1.3,2.0,91,0.00,CLR,,0.00,WeatherDisplay:10.37,2013-03-01 03:15:00,
2013-02-28 22:21:00,38.1,35.7,29.52,NNW,330,0.0,1.2,91,0.00,CLR,,0.00,WeatherDisplay:10.37,2013-03-01 03:21:00,
2013-02-28 22:26:00,38.2,35.5,29.52,NNW,330,1.5,3.0,90,0.00,CLR,,0.00,WeatherDisplay:10.37,2013-03-01 03:26:00,
2013-02-28 22:31:00,38.3,35.9,29.52,NNW,330,1.1,2.3,91,0.00,CLR,,0.00,WeatherDisplay:10.37,2013-03-01 03:31:00,
2013-02-28 22:36:00,38.2,35.5,29.52,NNW,330,0.0,0.0,90,0.00,CLR,,0.00,WeatherDisplay:10.37,2013-03-01 03:36:00,
2013-02-28 22:42:00,37.8,35.4,29.52,NNW,330,0.0,0.0,91,0.00,CLR,,0.00,WeatherDisplay:10.37,2013-03-01 03:42:00,
2013-02-28 22:47:00,37.4,35.0,29.52,NNW,330,0.0,0.0,91,0.00,CLR,,0.00,WeatherDisplay:10.37,2013-03-01 03:47:00,
2013-02-28 22:52:00,37.1,35.0,29.52,NNW,330,0.0,0.0,92,0.00,CLR,,0.00,WeatherDisplay:10.37,2013-03-01 03:52:00,
2013-02-28 22:57:00,37.1,35.0,29.52,NNW,330,0.0,0.0,92,0.00,CLR,,0.00,WeatherDisplay:10.37,2013-03-01 03:57:00,
2013-02-28 23:03:00,37.2,35.1,29.52,NNW,330,0.0,0.0,92,0.00,CLR,,0.00,WeatherDisplay:10.37,2013-03-01 04:03:00,
2013-02-28 23:08:00,37.4,35.6,29.52,NNW,330,1.3,2.3,93,0.00,CLR,,0.00,WeatherDisplay:10.37,2013-03-01 04:08:00,
2013-02-28 23:13:00,37.5,35.4,29.52,NNW,330,0.7,2.3,92,0.00,CLR,,0.00,WeatherDisplay:10.37,2013-03-01 04:13:00,
2013-02-28 23:18:00,37.5,35.4,29.52,NNW,330,1.1,2.3,92,0.00,CLR,,0.00,WeatherDisplay:10.37,2013-03-01 04:18:00,
2013-02-28 23:24:00,37.7,35.6,29.52,North,351,1.3,3.5,92,0.00,CLR,,0.00,WeatherDisplay:10.37,2013-03-01 04:24:00,
2013-02-28 23:29:00,37.8,35.7,29.52,North,4,1.0,2.3,92,0.00,CLR,,0.00,WeatherDisplay:10.37,2013-03-01 04:29:00,
2013-02-28 23:34:00,37.9,35.5,29.52,North,350,1.4,3.5,91,0.00,CLR,,0.00,WeatherDisplay:10.37,2013-03-01 04:34:00,
2013-02-28 23:39:00,38.0,35.6,29.52,North,354,2.3,3.5,91,0.00,CLR,,0.00,WeatherDisplay:10.37,2013-03-01 04:39:00,
2013-02-28 23:45:00,38.0,35.6,29.52,North,353,0.1,2.3,91,0.00,CLR,,0.00,WeatherDisplay:10.37,2013-03-01 04:45:00,
2013-02-28 23:50:00,38.1,35.7,29.52,North,354,1.0,3.0,91,0.00,CLR,CLR,0.00,WeatherDisplay:10.37,2013-03-01 04:50:00,
2013-02-28 23:55:00,38.1,35.7,29.52,North,354,0.0,2.0,91,0.00,CLR,CLR,0.00,WeatherDisplay:10.37,2013-03-01 04:55:00,